createdAt,value
2022-08-07T00:12:15.227Z,69.00
2022-08-07T00:29:31.337Z,69.30
2022-08-07T00:46:46.961Z,70.50
2022-08-07T01:04:34.659Z,70.70
2022-08-07T01:38:44.887Z,74.50
2022-08-07T01:50:49.647Z,77.20
2022-08-07T01:54:12.076Z,77.50
2022-08-07T01:56:53.300Z,77.60
2022-08-07T01:59:46.715Z,77.70
2022-08-07T02:03:18.231Z,78.10
2022-08-07T02:05:59.847Z,78.90
2022-08-07T02:08:54.195Z,78.80
2022-08-07T02:12:04.170Z,79.50
2022-08-07T02:14:58.540Z,79.80
2022-08-07T02:20:48.751Z,79.00
2022-08-07T02:29:54.017Z,79.00
2022-08-07T02:33:07.214Z,79.70
2022-08-07T02:36:30.174Z,79.60
2022-08-07T02:39:02.111Z,79.90
2022-08-07T02:42:09.817Z,79.30
2022-08-07T02:45:00.807Z,80.00
2022-08-07T02:48:02.003Z,80.20
2022-08-07T02:50:53.598Z,80.50
2022-08-07T02:53:42.728Z,80.20
2022-08-07T02:56:34.956Z,80.60
2022-08-07T02:59:27.636Z,80.80
2022-08-07T03:02:19.014Z,81.00
2022-08-07T03:05:09.203Z,80.60
2022-08-07T03:08:07.544Z,80.30
2022-08-07T03:11:01.192Z,80.10
2022-08-07T03:14:01.760Z,80.40
2022-08-07T03:16:49.703Z,80.00
2022-08-07T03:19:39.843Z,80.60
2022-08-07T03:22:31.067Z,81.30
2022-08-07T03:28:37.639Z,81.40
2022-08-07T03:31:23.704Z,82.00
2022-08-07T03:34:18.161Z,82.10
2022-08-07T03:37:12.465Z,81.90
2022-08-07T03:40:15.216Z,82.10
2022-08-07T03:43:03.886Z,82.50
2022-08-07T03:52:01.805Z,83.20
2022-08-07T03:58:08.765Z,83.20
2022-08-07T04:01:00.360Z,83.90
2022-08-07T04:03:54.988Z,84.20
2022-08-07T04:09:44.796Z,85.90
2022-08-07T04:12:35.276Z,85.50
2022-08-07T04:15:23.882Z,85.60
2022-08-07T04:18:57.970Z,86.40
2022-08-07T04:21:20.477Z,85.80
2022-08-07T04:30:39.266Z,89.10
2022-08-07T04:39:25.432Z,88.90
2022-08-07T04:45:07.992Z,89.60
2022-08-07T04:48:10.731Z,90.30
2022-08-07T04:51:09.161Z,90.50
2022-08-07T04:54:06.401Z,90.80
2022-08-07T04:58:10.236Z,91.30
2022-08-07T05:00:18.873Z,91.10
2022-08-07T05:03:59.577Z,91.60
2022-08-07T05:06:43.272Z,91.90
2022-08-07T05:09:45.393Z,91.80
2022-08-07T05:12:51.370Z,92.10
2022-08-07T05:15:45.843Z,90.20
2022-08-07T05:18:37.177Z,92.30
2022-08-07T05:22:00.235Z,92.30
2022-08-07T05:24:40.442Z,92.60
2022-08-07T05:28:02.926Z,92.90
2022-08-07T05:30:39.834Z,93.60
2022-08-07T05:33:29.346Z,93.90
2022-08-07T05:36:22.567Z,93.80
2022-08-07T05:40:06.792Z,93.70
2022-08-07T05:45:28.249Z,94.00
2022-08-07T05:48:31.293Z,94.50
2022-08-07T05:51:24.208Z,94.80
2022-08-07T05:54:30.905Z,94.70
2022-08-07T05:57:22.113Z,95.10
2022-08-07T06:00:16.692Z,95.50
2022-08-07T06:08:51.835Z,97.30
2022-08-07T06:11:39.076Z,98.20
2022-08-07T06:17:22.415Z,99.10
2022-08-07T06:26:29.116Z,99.90
2022-08-07T06:32:07.860Z,99.90
2022-08-07T06:37:44.005Z,99.90
2022-08-07T06:40:45.769Z,99.90
2022-08-07T06:43:39.990Z,99.90
2022-08-07T06:49:23.238Z,99.90
2022-08-07T06:52:12.429Z,99.90
2022-08-07T06:55:32.146Z,99.90
2022-08-07T06:58:13.328Z,99.90
2022-08-07T07:01:16.609Z,99.90
2022-08-07T07:04:32.343Z,99.90
2022-08-07T07:07:19.241Z,99.90
2022-08-07T07:10:28.805Z,99.90
2022-08-07T07:13:55.423Z,99.90
2022-08-07T07:16:31.580Z,99.90
2022-08-07T07:19:56.374Z,99.90
2022-08-07T07:26:32.530Z,99.90
2022-08-07T07:29:56.585Z,99.90
2022-08-07T07:32:06.727Z,99.90
2022-08-07T07:34:58.807Z,99.90
2022-08-07T07:37:59.109Z,99.90
2022-08-07T07:40:50.607Z,99.90
2022-08-07T07:44:14.244Z,99.90
2022-08-07T07:46:56.017Z,99.90
2022-08-07T07:50:35.337Z,99.90
2022-08-07T07:52:57.635Z,99.90
2022-08-07T07:58:46.546Z,99.90
2022-08-07T08:02:03.812Z,99.90
2022-08-07T08:04:44.793Z,99.90
2022-08-07T08:07:42.395Z,99.40
2022-08-07T08:10:40.342Z,98.40
2022-08-07T08:13:36.720Z,97.70
2022-08-07T08:16:40.761Z,96.70
2022-08-07T08:20:19.007Z,95.60
2022-08-07T08:23:08.486Z,94.40
2022-08-07T08:26:25.128Z,93.70
2022-08-07T08:29:16.173Z,91.90
2022-08-07T08:32:18.482Z,91.00
2022-08-07T08:35:07.844Z,89.50
2022-08-07T08:38:00.738Z,87.90
2022-08-07T08:40:55.884Z,85.20
2022-08-07T08:43:56.690Z,81.10
2022-08-07T08:46:54.228Z,79.00
2022-08-07T08:50:02.459Z,74.90
2022-08-07T08:52:58.628Z,71.60
2022-08-07T08:55:54.277Z,66.40
2022-08-07T08:58:54.430Z,67.70
2022-08-07T09:01:49.276Z,69.80
2022-08-07T09:04:44.427Z,69.50
2022-08-07T09:07:46.463Z,66.00
2022-08-07T09:10:49.641Z,66.40
2022-08-07T09:13:42.029Z,63.20
2022-08-07T09:16:39.736Z,62.90
2022-08-07T09:19:51.241Z,61.00
2022-08-07T09:24:33.530Z,61.10
2022-08-07T09:26:12.326Z,59.50
2022-08-07T09:30:06.698Z,59.10
2022-08-07T09:32:34.264Z,58.00
2022-08-07T09:36:05.383Z,57.60
2022-08-07T09:38:50.186Z,56.60
2022-08-07T09:42:03.030Z,53.80
2022-08-07T09:46:28.588Z,51.80
2022-08-07T09:48:43.904Z,52.60
2022-08-07T09:52:09.661Z,51.40
2022-08-07T09:55:17.122Z,51.40
2022-08-07T09:58:38.371Z,47.90
2022-08-07T10:01:53.117Z,47.80
2022-08-07T10:05:12.494Z,46.90
2022-08-07T10:08:11.721Z,47.00
2022-08-07T10:11:59.715Z,47.70
2022-08-07T10:14:31.171Z,46.00
2022-08-07T10:18:01.902Z,47.60
2022-08-07T10:21:50.614Z,46.80
2022-08-07T10:24:46.907Z,46.00
2022-08-07T10:27:47.451Z,46.30
2022-08-07T10:30:58.198Z,45.10
2022-08-07T10:34:05.994Z,43.40
2022-08-07T10:38:00.281Z,41.60
2022-08-07T10:40:41.950Z,41.00
2022-08-07T10:43:34.740Z,41.60
2022-08-07T10:46:29.995Z,41.20
2022-08-07T10:49:24.746Z,40.30
2022-08-07T10:52:42.755Z,38.80
2022-08-07T10:55:46.313Z,40.40
2022-08-07T10:58:59.817Z,41.80
2022-08-07T11:02:05.298Z,41.60
2022-08-07T11:05:10.206Z,41.70
2022-08-07T11:08:06.320Z,43.00
2022-08-07T11:11:00.087Z,43.90
2022-08-07T11:14:44.398Z,44.30
2022-08-07T11:17:08.807Z,45.10
2022-08-07T11:20:03.232Z,44.30
2022-08-07T11:23:01.695Z,44.80
2022-08-07T11:25:53.833Z,45.00
2022-08-07T11:28:53.404Z,44.40
2022-08-07T11:31:48.973Z,43.80
2022-08-07T11:34:46.035Z,43.70
2022-08-07T11:38:10.244Z,45.30
2022-08-07T11:41:04.903Z,44.80
2022-08-07T11:44:12.093Z,45.30
2022-08-07T11:47:10.425Z,44.60
2022-08-07T11:50:31.842Z,45.20
2022-08-07T11:53:28.424Z,43.80
2022-08-07T11:56:45.225Z,43.80
2022-08-07T12:00:10.822Z,42.10
2022-08-07T12:03:44.874Z,43.70
2022-08-07T12:06:51.811Z,43.20
2022-08-07T12:09:51.843Z,42.50
2022-08-07T12:12:43.497Z,43.30
2022-08-07T12:15:46.334Z,44.10
2022-08-07T12:18:50.720Z,43.50
2022-08-07T12:21:55.988Z,44.10
2022-08-07T12:26:03.135Z,44.30
2022-08-07T12:28:34.484Z,43.10
2022-08-07T12:31:52.920Z,43.40
2022-08-07T12:38:09.450Z,43.20
2022-08-07T12:41:02.135Z,42.60
2022-08-07T12:44:04.849Z,41.40
2022-08-07T12:47:06.257Z,42.00
2022-08-07T12:50:05.175Z,42.10
2022-08-07T12:53:21.900Z,41.40
2022-08-07T12:56:13.266Z,40.90
2022-08-07T12:59:02.041Z,39.90
2022-08-07T13:02:02.857Z,40.50
2022-08-07T13:05:10.383Z,39.70
2022-08-07T13:08:31.707Z,39.40
2022-08-07T13:12:02.780Z,38.40
2022-08-07T13:14:55.295Z,38.30
2022-08-07T13:17:52.601Z,39.00
2022-08-07T13:20:50.994Z,38.80
2022-08-07T13:24:04.496Z,38.60
2022-08-07T13:26:56.808Z,37.60
2022-08-07T13:29:53.441Z,38.80
2022-08-07T13:32:45.837Z,38.70
2022-08-07T13:36:00.288Z,38.60
2022-08-07T13:38:57.618Z,38.20
2022-08-07T13:41:49.200Z,37.60
2022-08-07T13:44:39.783Z,37.40
2022-08-07T13:48:05.826Z,39.30
2022-08-07T13:50:44.816Z,41.10
2022-08-07T13:53:59.577Z,42.70
2022-08-07T13:56:51.944Z,44.10
2022-08-07T13:59:48.389Z,44.90
2022-08-07T14:02:49.302Z,44.90
2022-08-07T14:11:17.664Z,46.30
2022-08-07T14:14:12.008Z,47.00
2022-08-07T14:17:32.442Z,47.00
2022-08-07T14:20:42.384Z,46.00
2022-08-07T14:26:38.311Z,46.50
2022-08-07T14:30:07.804Z,47.00
2022-08-07T14:32:45.531Z,46.20
2022-08-07T14:35:45.626Z,46.60
2022-08-07T14:41:33.984Z,45.30
2022-08-07T14:44:36.927Z,45.10
2022-08-07T14:47:25.974Z,45.90
2022-08-07T14:56:29.823Z,46.90
2022-08-07T15:02:34.215Z,46.40
2022-08-07T15:08:13.928Z,47.00
2022-08-07T15:11:05.445Z,46.30
2022-08-07T15:13:55.756Z,46.30
2022-08-07T15:16:54.877Z,47.20
2022-08-07T15:20:30.959Z,46.90
2022-08-07T15:23:16.899Z,46.80
2022-08-07T15:26:10.374Z,47.10
2022-08-07T15:30:06.466Z,46.80
2022-08-07T15:38:51.424Z,47.50
2022-08-07T15:45:09.504Z,47.00
2022-08-07T15:48:06.358Z,46.70
2022-08-07T15:51:11.939Z,47.20
2022-08-07T15:54:01.613Z,47.30
2022-08-07T15:59:44.091Z,47.70
2022-08-07T16:02:34.924Z,48.00
2022-08-07T16:08:30.479Z,48.30
2022-08-07T16:11:40.211Z,48.50
2022-08-07T16:14:59.079Z,48.10
2022-08-07T16:18:01.763Z,48.20
2022-08-07T16:21:53.470Z,48.60
2022-08-07T16:24:34.452Z,48.10
2022-08-07T16:27:40.284Z,48.00
2022-08-07T16:30:32.552Z,48.60
2022-08-07T16:34:02.196Z,48.60
2022-08-07T16:37:02.410Z,48.10
2022-08-07T16:40:22.989Z,48.50
2022-08-07T16:44:02.533Z,48.90
2022-08-07T16:47:18.654Z,48.80
2022-08-07T16:50:36.302Z,48.50
2022-08-07T16:54:05.990Z,49.10
2022-08-07T16:57:15.732Z,48.90
2022-08-07T17:00:15.046Z,48.30
2022-08-07T17:03:18.663Z,48.30
2022-08-07T17:06:31.405Z,49.00
2022-08-07T17:10:08.247Z,48.10
2022-08-07T17:12:48.326Z,47.70
2022-08-07T17:18:41.871Z,47.60
2022-08-07T17:21:51.437Z,47.60
2022-08-07T17:25:01.572Z,47.60
2022-08-07T17:27:59.527Z,47.40
2022-08-07T17:30:58.460Z,47.00
2022-08-07T17:34:15.493Z,46.50
2022-08-07T17:38:06.642Z,46.30
2022-08-07T17:40:20.319Z,46.60
2022-08-07T17:44:03.209Z,46.30
2022-08-07T17:46:52.397Z,46.00
2022-08-07T17:49:46.025Z,45.90
2022-08-07T17:52:39.722Z,46.70
2022-08-07T17:55:55.702Z,47.30
2022-08-07T17:58:51.191Z,47.30
2022-08-07T18:01:48.488Z,47.00
2022-08-07T18:10:32.716Z,47.00
2022-08-07T18:13:40.690Z,46.70
2022-08-07T18:16:34.121Z,46.40
2022-08-07T18:31:38.667Z,46.40
2022-08-07T18:35:00.976Z,46.70
2022-08-07T18:47:11.440Z,47.20
2022-08-07T18:50:39.685Z,47.40
2022-08-07T18:53:48.778Z,47.70
2022-08-07T18:57:06.130Z,47.60
2022-08-07T19:00:04.511Z,48.10
2022-08-07T19:03:19.239Z,48.00
2022-08-07T19:06:34.078Z,48.20
2022-08-07T19:09:56.293Z,48.70
2022-08-07T19:12:59.123Z,49.80
2022-08-07T19:17:01.494Z,51.40
2022-08-07T19:19:19.653Z,52.60
2022-08-07T19:22:31.437Z,52.20
2022-08-07T19:26:22.930Z,51.70
2022-08-07T19:30:54.255Z,51.70
2022-08-07T19:32:11.391Z,50.40
2022-08-07T19:34:51.680Z,50.40
2022-08-07T19:37:56.562Z,52.10
2022-08-07T19:43:51.960Z,53.00
2022-08-07T19:46:50.331Z,53.60
2022-08-07T19:49:57.679Z,54.40
2022-08-07T19:52:59.133Z,53.90
2022-08-07T19:55:58.018Z,53.70
2022-08-07T19:58:52.848Z,54.30
2022-08-07T20:01:57.036Z,55.00
2022-08-07T20:04:49.195Z,54.80
2022-08-07T20:07:46.107Z,55.10
2022-08-07T20:10:55.452Z,53.50
2022-08-07T20:13:46.489Z,53.80
2022-08-07T20:16:36.837Z,54.00
2022-08-07T20:19:28.805Z,53.20
2022-08-07T20:25:25.305Z,54.40
2022-08-07T20:28:17.751Z,54.90
2022-08-07T20:31:21.474Z,54.80
2022-08-07T20:34:11.218Z,54.80
2022-08-07T20:36:59.551Z,54.40
2022-08-07T20:40:02.773Z,53.60
2022-08-07T20:42:56.622Z,54.20
2022-08-07T20:46:28.443Z,54.80
2022-08-07T20:50:01.250Z,55.20
2022-08-07T20:52:16.532Z,55.90
2022-08-07T20:58:02.913Z,55.80
2022-08-07T21:00:57.660Z,55.80
2022-08-07T21:04:18.814Z,54.60
2022-08-07T21:06:58.891Z,54.80
2022-08-07T21:10:00.470Z,55.10
2022-08-07T21:12:49.219Z,55.40
2022-08-07T21:15:58.144Z,55.10
2022-08-07T21:18:53.308Z,54.80
2022-08-07T21:21:49.224Z,54.80
2022-08-07T21:24:55.721Z,55.50
2022-08-07T21:28:01.872Z,55.40
2022-08-07T21:30:57.779Z,55.90
2022-08-07T21:33:53.247Z,56.10
2022-08-07T21:36:50.036Z,56.80
2022-08-07T21:39:55.076Z,57.50
2022-08-07T21:42:55.881Z,57.80
2022-08-07T21:46:11.333Z,58.60
2022-08-07T21:49:00.341Z,59.00
2022-08-07T21:51:58.652Z,59.20
2022-08-07T21:54:58.230Z,59.50
2022-08-07T21:58:04.681Z,59.90
2022-08-07T22:00:57.313Z,60.20
2022-08-07T22:03:53.844Z,60.30
2022-08-07T22:06:53.631Z,60.30
2022-08-07T22:09:54.030Z,60.60
2022-08-07T22:12:48.244Z,61.00
2022-08-07T22:16:42.408Z,61.50
2022-08-07T22:19:01.156Z,61.70
2022-08-07T22:22:04.622Z,61.80
2022-08-07T22:25:07.748Z,62.10
2022-08-07T22:28:30.981Z,62.40
2022-08-07T22:31:45.629Z,62.80
2022-08-07T22:34:49.440Z,62.70
2022-08-07T22:38:03.176Z,63.50
2022-08-07T22:40:57.781Z,64.40
2022-08-07T22:43:50.542Z,64.30
2022-08-07T22:47:17.257Z,64.40
2022-08-07T22:50:45.003Z,64.80
2022-08-07T22:58:05.331Z,65.80
2022-08-07T23:01:16.189Z,64.90
2022-08-07T23:04:16.367Z,64.70
2022-08-07T23:07:40.438Z,65.30
2022-08-07T23:10:41.857Z,66.10
2022-08-07T23:13:49.020Z,65.70
2022-08-07T23:17:15.691Z,66.20
2022-08-07T23:20:51.002Z,66.40
2022-08-07T23:24:05.233Z,65.90
2022-08-07T23:27:14.281Z,66.30
2022-08-07T23:30:39.172Z,66.10
2022-08-07T23:34:34.210Z,66.50
2022-08-07T23:36:54.769Z,67.30
2022-08-07T23:40:23.773Z,67.20
2022-08-07T23:43:40.062Z,67.60
2022-08-07T23:46:51.812Z,67.60
2022-08-07T23:49:59.827Z,67.50
2022-08-07T23:53:01.585Z,67.80
2022-08-07T23:56:03.917Z,68.80
2022-08-07T23:59:10.637Z,69.40
